createdAt,value
2022-08-09T00:02:29.588Z,100879.25
2022-08-09T00:07:31.164Z,100880.53
2022-08-09T00:12:46.494Z,100880.78
2022-08-09T00:18:05.709Z,100880.34
2022-08-09T00:23:57.540Z,100885.81
2022-08-09T00:28:35.236Z,100883.25
2022-08-09T00:33:48.998Z,100888.56
2022-08-09T00:38:53.628Z,100884.41
2022-08-09T00:44:16.316Z,100882.13
2022-08-09T00:49:16.661Z,100882.47
2022-08-09T00:54:19.445Z,100879.97
2022-08-09T00:59:40.408Z,100894.66
2022-08-09T01:04:58.590Z,100894.75
2022-08-09T01:10:06.051Z,100891.94
2022-08-09T01:15:16.882Z,100893.19
2022-08-09T01:20:39.905Z,100900.78
2022-08-09T01:26:14.230Z,100898.53
2022-08-09T01:31:23.396Z,100905.06
2022-08-09T01:36:43.382Z,100901.84
2022-08-09T01:41:53.743Z,100903.13
2022-08-09T01:47:03.865Z,100908.94
2022-08-09T01:52:14.655Z,100912.75
2022-08-09T01:57:21.673Z,100915.94
2022-08-09T02:02:30.873Z,100920.16
2022-08-09T02:08:39.795Z,100924.53
2022-08-09T02:13:04.047Z,100925.91
2022-08-09T02:18:09.846Z,100933.13
2022-08-09T02:23:20.669Z,100936.88
2022-08-09T02:28:37.330Z,100940.00
2022-08-09T02:34:07.556Z,100938.19
2022-08-09T02:39:14.271Z,100935.38
2022-08-09T02:44:29.617Z,100932.09
2022-08-09T02:49:38.386Z,100935.59
2022-08-09T02:54:51.452Z,100932.94
2022-08-09T03:00:21.407Z,100940.81
2022-08-09T03:05:19.432Z,100945.44
2022-08-09T03:10:21.966Z,100938.00
2022-08-09T03:15:24.974Z,100940.72
2022-08-09T03:20:47.531Z,100935.66
2022-08-09T03:25:59.218Z,100934.22
2022-08-09T03:31:10.456Z,100931.78
2022-08-09T03:36:27.666Z,100940.47
2022-08-09T03:41:44.833Z,100939.63
2022-08-09T03:46:50.657Z,100937.84
2022-08-09T03:52:00.353Z,100942.13
2022-08-09T03:57:18.595Z,100942.44
2022-08-09T04:02:30.022Z,100951.25
2022-08-09T04:07:47.477Z,100960.78
2022-08-09T04:12:54.745Z,100975.19
2022-08-09T04:17:57.729Z,100970.88
2022-08-09T04:22:59.661Z,100965.50
2022-08-09T04:28:03.696Z,100976.28
2022-08-09T04:33:05.455Z,100987.91
2022-08-09T04:38:09.394Z,100994.00
2022-08-09T04:43:10.983Z,100992.41
2022-08-09T04:48:15.338Z,101003.91
2022-08-09T04:53:16.875Z,101002.25
2022-08-09T04:58:18.485Z,101010.13
2022-08-09T05:03:40.255Z,101013.50
2022-08-09T05:08:43.931Z,101010.88
2022-08-09T05:13:49.619Z,101018.88
2022-08-09T05:18:59.183Z,101012.16
2022-08-09T05:24:03.979Z,101022.81
2022-08-09T05:29:06.326Z,101019.19
2022-08-09T05:34:07.823Z,101021.66
2022-08-09T05:39:28.590Z,101018.94
2022-08-09T05:44:32.777Z,101024.31
2022-08-09T05:50:35.097Z,101038.72
2022-08-09T05:54:57.878Z,101035.44
2022-08-09T06:00:07.941Z,101040.69
2022-08-09T06:05:11.234Z,101040.97
2022-08-09T06:10:18.012Z,101031.78
2022-08-09T06:15:19.878Z,101033.03
2022-08-09T06:20:21.464Z,101026.91
2022-08-09T06:25:23.837Z,101023.56
2022-08-09T06:30:25.446Z,101030.38
2022-08-09T06:35:35.887Z,101032.44
2022-08-09T06:40:50.041Z,101033.97
2022-08-09T06:46:07.312Z,101036.09
2022-08-09T06:51:13.037Z,101036.16
2022-08-09T06:56:16.475Z,101041.44
2022-08-09T07:01:21.468Z,101037.59
2022-08-09T07:06:28.010Z,101040.88
2022-08-09T07:11:34.349Z,101044.34
2022-08-09T07:16:57.703Z,101032.91
2022-08-09T07:22:00.061Z,101044.63
2022-08-09T07:27:02.109Z,101037.66
2022-08-09T07:32:04.643Z,101040.63
2022-08-09T07:37:15.557Z,101039.16
2022-08-09T07:42:17.714Z,101034.56
2022-08-09T07:47:19.755Z,101042.50
2022-08-09T07:52:22.767Z,101034.53
2022-08-09T07:57:35.915Z,101033.59
2022-08-09T08:02:42.272Z,101028.13
2022-08-09T08:08:06.603Z,101028.97
2022-08-09T08:13:06.194Z,101035.59
2022-08-09T08:18:12.229Z,101029.47
2022-08-09T08:23:17.926Z,101031.06
2022-08-09T08:28:31.835Z,101033.34
2022-08-09T08:33:49.593Z,101028.47
2022-08-09T08:38:56.267Z,101026.88
2022-08-09T08:44:03.551Z,101033.47
2022-08-09T08:49:07.550Z,101037.84
2022-08-09T08:54:20.413Z,101032.41
2022-08-09T08:59:40.952Z,101027.94
2022-08-09T09:04:53.077Z,101021.44
2022-08-09T09:10:02.881Z,101015.69
2022-08-09T09:15:07.070Z,101020.00
2022-08-09T09:20:10.151Z,101017.38
2022-08-09T09:26:05.035Z,101022.91
2022-08-09T09:31:05.972Z,101006.88
2022-08-09T09:36:20.181Z,101008.25
2022-08-09T09:41:22.696Z,101009.53
2022-08-09T09:46:46.026Z,101004.84
2022-08-09T09:52:04.916Z,101003.66
2022-08-09T09:58:02.644Z,100994.81
2022-08-09T10:02:47.792Z,100981.91
2022-08-09T10:08:11.305Z,100981.06
2022-08-09T10:13:10.907Z,100986.53
2022-08-09T10:18:24.880Z,100988.34
2022-08-09T10:23:28.226Z,100989.25
2022-08-09T10:28:32.214Z,100981.81
2022-08-09T10:34:11.072Z,100976.47
2022-08-09T10:38:59.931Z,100990.19
2022-08-09T10:44:03.912Z,100966.88
2022-08-09T10:49:50.283Z,100984.56
2022-08-09T10:54:53.726Z,100988.06
2022-08-09T10:59:58.343Z,100981.56
2022-08-09T11:05:25.488Z,100979.41
2022-08-09T11:10:41.019Z,100975.56
2022-08-09T11:16:35.605Z,100967.97
2022-08-09T11:22:04.824Z,100969.50
2022-08-09T11:28:04.069Z,100955.13
2022-08-09T11:32:49.453Z,100934.81
2022-08-09T11:37:53.364Z,100950.88
2022-08-09T11:42:56.995Z,100949.78
2022-08-09T11:48:25.154Z,100939.41
2022-08-09T11:54:00.379Z,100938.38
2022-08-09T11:59:00.061Z,100932.16
2022-08-09T12:04:07.432Z,100922.69
2022-08-09T12:09:21.071Z,100922.25
2022-08-09T12:14:40.685Z,100930.75
2022-08-09T12:19:53.009Z,100922.44
2022-08-09T12:25:35.948Z,100916.59
2022-08-09T12:30:39.411Z,100912.03
2022-08-09T12:35:43.040Z,100916.09
2022-08-09T12:40:46.285Z,100904.13
2022-08-09T12:45:59.943Z,100904.66
2022-08-09T12:51:03.738Z,100894.06
2022-08-09T12:56:43.789Z,100888.31
2022-08-09T13:01:49.730Z,100880.53
2022-08-09T13:06:54.144Z,100900.88
2022-08-09T13:12:03.977Z,100890.91
2022-08-09T13:17:13.463Z,100883.34
2022-08-09T13:22:37.548Z,100884.78
2022-08-09T13:27:54.758Z,100880.25
2022-08-09T13:32:58.083Z,100875.72
2022-08-09T13:38:00.299Z,100909.00
2022-08-09T13:43:05.264Z,100880.75
2022-08-09T13:48:11.183Z,100870.19
2022-08-09T13:53:12.695Z,100882.59
2022-08-09T13:58:14.332Z,100853.28
2022-08-09T14:03:57.952Z,100870.63
2022-08-09T14:08:37.307Z,100872.94
2022-08-09T14:14:22.668Z,100865.03
2022-08-09T14:19:00.454Z,100859.81
2022-08-09T14:24:18.770Z,100864.19
2022-08-09T14:30:04.440Z,100842.66
2022-08-09T14:34:46.219Z,100856.38
2022-08-09T14:39:48.689Z,100843.31
2022-08-09T14:45:00.015Z,100840.56
2022-08-09T14:50:03.116Z,100841.84
2022-08-09T14:55:08.209Z,100838.44
2022-08-09T15:00:11.105Z,100839.41
2022-08-09T15:05:13.865Z,100839.56
2022-08-09T15:10:17.759Z,100841.09
2022-08-09T15:15:20.072Z,100842.47
2022-08-09T15:21:55.328Z,100844.69
2022-08-09T15:25:43.702Z,100836.16
2022-08-09T15:30:58.845Z,100825.13
2022-08-09T15:36:06.794Z,100841.22
2022-08-09T15:41:09.727Z,100836.03
2022-08-09T15:46:32.610Z,100830.59
2022-08-09T15:52:04.113Z,100826.09
2022-08-09T15:56:54.869Z,100816.41
2022-08-09T16:01:56.607Z,100820.16
2022-08-09T16:06:58.748Z,100825.47
2022-08-09T16:12:03.849Z,100816.63
2022-08-09T16:17:05.576Z,100812.34
2022-08-09T16:28:29.791Z,100811.34
2022-08-09T16:33:35.890Z,100816.63
2022-08-09T16:38:41.269Z,100819.72
2022-08-09T16:43:42.921Z,100809.88
2022-08-09T16:48:52.065Z,100810.38
2022-08-09T16:54:27.677Z,100807.78
2022-08-09T16:59:23.079Z,100805.63
2022-08-09T17:04:28.266Z,100806.28
2022-08-09T17:09:45.275Z,100805.78
2022-08-09T17:14:50.704Z,100798.75
2022-08-09T17:20:28.175Z,100804.00
2022-08-09T17:25:22.196Z,100808.75
2022-08-09T17:30:30.616Z,100807.13
2022-08-09T17:35:34.751Z,100813.69
2022-08-09T17:40:36.433Z,100812.84
2022-08-09T17:46:03.829Z,100817.44
2022-08-09T17:51:09.836Z,100813.31
2022-08-09T17:56:27.604Z,100818.03
2022-08-09T18:02:06.823Z,100822.59
2022-08-09T18:06:55.195Z,100822.22
2022-08-09T18:12:14.458Z,100827.75
2022-08-09T18:17:27.161Z,100832.81
2022-08-09T18:22:40.665Z,100826.31
2022-08-09T18:28:04.880Z,100832.28
2022-08-09T18:33:13.417Z,100847.91
2022-08-09T18:38:15.409Z,100852.72
2022-08-09T18:43:17.087Z,100851.91
2022-08-09T18:48:18.785Z,100861.13
2022-08-09T18:53:22.445Z,100865.69
2022-08-09T18:58:32.144Z,100878.75
2022-08-09T19:03:54.602Z,100867.94
2022-08-09T19:09:03.103Z,100873.28
2022-08-09T19:14:06.086Z,100881.09
2022-08-09T19:19:25.257Z,100885.78
2022-08-09T19:24:32.490Z,100896.00
2022-08-09T19:30:24.769Z,100899.63
2022-08-09T19:35:02.257Z,100901.03
2022-08-09T19:40:05.767Z,100895.81
2022-08-09T19:45:08.351Z,100903.50
2022-08-09T19:50:49.587Z,100900.72
2022-08-09T19:56:03.332Z,100904.50
2022-08-09T20:01:08.162Z,100908.59
2022-08-09T20:06:10.474Z,100913.59
2022-08-09T20:11:42.806Z,100917.53
2022-08-09T20:16:53.429Z,100914.06
2022-08-09T20:21:59.789Z,100908.63
2022-08-09T20:27:05.751Z,100912.28
2022-08-09T20:32:30.922Z,100916.59
2022-08-09T20:38:19.545Z,100915.38
2022-08-09T20:43:00.457Z,100917.91
2022-08-09T20:48:21.398Z,100913.78
2022-08-09T20:53:37.174Z,100928.03
2022-08-09T20:58:43.434Z,100927.28
2022-08-09T21:05:48.262Z,100928.06
2022-08-09T21:09:13.565Z,100937.88
2022-08-09T21:14:16.673Z,100935.53
2022-08-09T21:20:19.618Z,100937.88
2022-08-09T21:25:01.149Z,100938.25
2022-08-09T21:30:02.774Z,100949.22
2022-08-09T21:35:04.533Z,100939.09
2022-08-09T21:40:10.683Z,100938.38
2022-08-09T21:45:17.414Z,100944.34
2022-08-09T21:50:33.908Z,100941.03
2022-08-09T21:55:40.116Z,100941.19
2022-08-09T22:00:41.772Z,100943.03
2022-08-09T22:05:43.320Z,100946.59
2022-08-09T22:11:00.946Z,100939.88
2022-08-09T22:16:09.641Z,100932.03
2022-08-09T22:21:21.611Z,100934.44
2022-08-09T22:26:35.435Z,100931.78
2022-08-09T22:31:44.102Z,100943.94
2022-08-09T22:36:46.756Z,100942.16
2022-08-09T22:41:48.249Z,100939.47
2022-08-09T22:48:16.314Z,100936.78
2022-08-09T22:52:11.456Z,100935.13
2022-08-09T22:57:13.002Z,100939.25
2022-08-09T23:02:14.948Z,100936.34
2022-08-09T23:08:21.202Z,100935.81
2022-08-09T23:12:59.043Z,100938.00
2022-08-09T23:18:00.486Z,100942.00
2022-08-09T23:23:02.039Z,100944.13
2022-08-09T23:28:15.828Z,100938.75
2022-08-09T23:33:17.765Z,100935.25
2022-08-09T23:38:21.096Z,100933.50
2022-08-09T23:43:22.729Z,100934.22
2022-08-09T23:48:24.193Z,100936.72
2022-08-09T23:53:28.299Z,100936.00
2022-08-09T23:58:36.578Z,100932.09
